Time;durP1;ratioP1;P1;durP2;ratioP2;P2;SDS_P1;SDS_P2;PMS_P1;PMS_P2;Temp;Humidity;BMP_temperature;BMP_pressure;BME280_temperature;BME280_humidity;BME280_pressure;Samples;Min_cycle;Max_cycle;Signal;HPM_P1;HPM_P2
2023/06/04 00:01:06;;;;;;;3.67;2.90;;;;;;;17.99;nan;61370.94;4994688;28;20216;-63
2023/06/04 00:03:32;;;;;;;4.50;3.10;;;;;;;18.13;nan;61344.81;4993717;28;20169;-64
2023/06/04 00:05:57;;;;;;;8.23;3.20;;;;;;;18.18;nan;61428.06;4994802;28;20235;-63
2023/06/04 00:08:23;;;;;;;4.20;3.03;;;;;;;18.20;nan;61375.44;4993738;28;20173;-63
2023/06/04 00:10:48;;;;;;;4.10;2.80;;;;;;;17.96;nan;61408.91;4994337;28;20223;-64
2023/06/04 00:13:14;;;;;;;4.35;3.20;;;;;;;18.21;nan;61390.09;4994001;28;20169;-63
2023/06/04 00:15:39;;;;;;;5.15;3.60;;;;;;;18.17;nan;61408.84;4994486;28;20570;-64
2023/06/04 00:18:05;;;;;;;5.70;3.20;;;;;;;17.83;nan;61389.06;4993641;28;20177;-64
2023/06/04 00:20:30;;;;;;;5.45;3.33;;;;;;;17.73;nan;61377.16;4994151;28;20227;-64
2023/06/04 00:22:56;;;;;;;5.85;3.40;;;;;;;18.11;nan;61435.66;4994057;28;20183;-63
2023/06/04 00:25:21;;;;;;;5.35;3.30;;;;;;;17.72;nan;61368.84;4993883;28;20188;-64
2023/06/04 00:27:46;;;;;;;4.75;3.33;;;;;;;18.05;nan;61377.72;4993595;28;20252;-63
2023/06/04 00:30:12;;;;;;;4.15;3.10;;;;;;;18.02;nan;61415.72;4993504;28;20196;-63
2023/06/04 00:32:38;;;;;;;6.28;3.50;;;;;;;17.98;nan;61410.63;4994142;28;20547;-64
2023/06/04 00:35:03;;;;;;;4.25;3.25;;;;;;;17.57;nan;61359.66;4994067;28;20180;-64
2023/06/04 00:37:29;;;;;;;6.60;3.30;;;;;;;17.70;nan;61358.28;4993553;28;20655;-63
2023/06/04 00:39:55;;;;;;;6.00;3.53;;;;;;;17.76;nan;61315.97;4993809;28;20179;-64
2023/06/04 00:42:20;;;;;;;7.00;3.47;;;;;;;17.94;nan;61338.91;4993487;28;20168;-64
2023/06/04 00:44:47;;;;;;;4.97;3.42;;;;;;;17.58;nan;61322.00;4993594;28;20477;-64
2023/06/04 00:47:14;;;;;;;5.60;3.35;;;;;;;17.85;nan;61305.47;4992379;28;20165;-63
2023/06/04 00:49:41;;;;;;;4.50;3.05;;;;;;;17.77;nan;61340.91;4993525;28;20169;-63
2023/06/04 00:52:10;;;;;;;4.63;3.22;;;;;;;17.71;nan;61305.72;4993476;28;20208;-64
2023/06/04 00:54:36;;;;;;;5.45;3.47;;;;;;;17.62;nan;61321.38;4993066;28;20180;-63
2023/06/04 00:57:02;;;;;;;5.35;3.30;;;;;;;17.55;nan;61429.69;4993356;28;20173;-63
2023/06/04 00:59:32;;;;;;;5.78;3.70;;;;;;;17.86;nan;61316.91;4993723;28;20199;-64
2023/06/04 01:02:06;;;;;;;4.70;3.13;;;;;;;17.87;nan;61300.53;4993848;28;20220;-64
2023/06/04 01:05:08;;;;;;;4.35;3.40;;;;;;;17.87;nan;61312.88;4987652;28;20206;-64
2023/06/04 01:07:35;;;;;;;5.13;3.60;;;;;;;17.80;nan;61305.00;4989140;28;20640;-63
2023/06/04 01:10:01;;;;;;;5.43;3.55;;;;;;;17.86;nan;61319.50;4989420;28;20243;-64
2023/06/04 01:12:26;;;;;;;6.13;4.07;;;;;;;17.82;nan;61338.81;4978713;28;20569;-64
2023/06/04 01:14:52;;;;;;;4.90;3.47;;;;;;;17.66;nan;61272.22;4984803;28;20184;-65
2023/06/04 01:17:19;;;;;;;6.93;3.65;;;;;;;17.89;nan;61322.91;4983936;28;20656;-64
2023/06/04 01:19:54;;;;;;;5.15;3.72;;;;;;;18.05;nan;61343.56;4984614;28;20181;-62
2023/06/04 01:22:43;;;;;;;7.65;3.58;;;;;;;17.75;nan;61320.56;4984032;28;20186;-63
2023/06/04 01:25:33;;;;;;;5.40;3.80;;;;;;;17.98;nan;61325.31;4984765;28;20185;-63
2023/06/04 01:28:00;;;;;;;5.97;3.65;;;;;;;18.02;nan;61338.16;5015358;28;20232;-64
2023/06/04 01:30:42;;;;;;;4.93;3.28;;;;;;;17.91;nan;61294.13;4977003;28;20819;-63
2023/06/04 01:33:08;;;;;;;5.72;3.60;;;;;;;17.93;nan;61477.91;4979187;28;20181;-64
2023/06/04 01:35:34;;;;;;;6.07;4.10;;;;;;;17.79;nan;61330.25;4987954;28;20203;-63
2023/06/04 01:38:00;;;;;;;5.47;3.75;;;;;;;17.64;nan;61233.78;4984556;28;20637;-64
2023/06/04 01:40:27;;;;;;;6.13;3.80;;;;;;;17.37;nan;61254.41;4977446;28;20193;-64
2023/06/04 01:42:52;;;;;;;4.55;3.38;;;;;;;17.47;nan;61227.50;4977952;28;20663;-63
2023/06/04 01:45:21;;;;;;;5.18;3.20;;;;;;;17.57;nan;61303.34;4981257;28;20180;-63
2023/06/04 01:47:47;;;;;;;6.32;3.72;;;;;;;17.78;nan;61336.88;4977833;28;20193;-62
2023/06/04 01:50:12;;;;;;;6.03;3.55;;;;;;;17.95;nan;61361.25;4983989;28;20172;-63
2023/06/04 01:52:39;;;;;;;5.45;4.00;;;;;;;17.73;nan;61470.75;4977659;28;20264;-63
2023/06/04 01:55:07;;;;;;;5.13;3.30;;;;;;;17.53;nan;61335.00;4977432;28;20190;-63
2023/06/04 01:57:36;;;;;;;4.97;3.42;;;;;;;17.47;nan;61296.69;4978709;28;20220;-65
2023/06/04 02:00:03;;;;;;;6.68;3.42;;;;;;;17.65;nan;61534.63;4989722;28;20227;-63
2023/06/04 02:02:30;;;;;;;5.63;3.65;;;;;;;17.89;nan;61307.97;4992136;28;20204;-64
2023/06/04 02:04:56;;;;;;;5.85;3.70;;;;;;;17.96;nan;61356.66;4984527;28;20250;-64
2023/06/04 02:07:21;;;;;;;5.47;3.40;;;;;;;17.61;nan;61263.44;4983452;28;20181;-63
2023/06/04 02:09:47;;;;;;;4.93;3.38;;;;;;;17.83;nan;61295.44;4977416;28;20185;-63
2023/06/04 02:12:13;;;;;;;7.75;4.03;;;;;;;17.89;nan;61309.97;4978834;28;20220;-64
2023/06/04 02:14:38;;;;;;;5.88;4.03;;;;;;;17.49;nan;61257.59;4989469;28;20184;-63
2023/06/04 02:17:12;;;;;;;7.03;3.22;;;;;;;17.41;nan;61225.34;4986069;28;20704;-64
2023/06/04 02:19:44;;;;;;;5.50;4.10;;;;;;;17.59;nan;61206.91;4985935;28;20192;-63
2023/06/04 02:22:13;;;;;;;6.13;3.85;;;;;;;17.41;nan;61249.16;4979733;28;20187;-65
2023/06/04 02:24:42;;;;;;;8.70;4.18;;;;;;;17.27;nan;61173.97;4985024;28;20188;-65
2023/06/04 02:27:08;;;;;;;5.57;3.83;;;;;;;17.22;nan;61134.75;4987171;28;20184;-65
2023/06/04 02:29:33;;;;;;;5.50;3.90;;;;;;;17.50;nan;61121.84;4980106;28;20189;-64
2023/06/04 02:31:59;;;;;;;6.45;4.05;;;;;;;17.19;nan;61097.84;4992054;28;20215;-64
2023/06/04 02:34:24;;;;;;;7.60;3.83;;;;;;;17.47;nan;61093.22;4985889;28;20216;-65
2023/06/04 02:36:50;;;;;;;6.97;4.20;;;;;;;17.50;nan;61114.66;4979645;28;20711;-64
2023/06/04 02:39:20;;;;;;;5.03;3.75;;;;;;;17.27;nan;61121.75;4985683;28;20208;-63
2023/06/04 02:41:45;;;;;;;6.63;3.95;;;;;;;17.15;nan;61101.66;4983891;28;20246;-63
2023/06/04 02:44:11;;;;;;;8.25;3.88;;;;;;;17.31;nan;61144.91;4983955;28;20189;-63
2023/06/04 02:46:37;;;;;;;8.27;4.13;;;;;;;17.23;nan;61125.56;4982983;28;20581;-63
2023/06/04 02:49:03;;;;;;;5.90;3.72;;;;;;;17.52;nan;61180.94;4985186;28;20191;-63
2023/06/04 02:51:28;;;;;;;5.72;3.80;;;;;;;17.50;nan;61142.50;4985916;28;20216;-64
2023/06/04 02:53:54;;;;;;;7.47;3.72;;;;;;;17.43;nan;61119.69;4978953;28;20177;-63
2023/06/04 02:56:20;;;;;;;5.60;3.65;;;;;;;17.05;nan;61030.44;4982185;28;20189;-64
2023/06/04 02:58:53;;;;;;;9.93;3.83;;;;;;;17.14;nan;61056.63;4977016;28;20200;-63
2023/06/04 03:01:26;;;;;;;6.53;3.80;;;;;;;17.26;nan;61095.38;4990159;28;20231;-63
2023/06/04 03:03:52;;;;;;;6.55;3.95;;;;;;;17.42;nan;61270.94;4984676;28;20212;-63
2023/06/04 03:06:20;;;;;;;6.30;3.70;;;;;;;17.54;nan;61145.00;4978703;28;20191;-63
2023/06/04 03:08:47;;;;;;;5.80;3.80;;;;;;;17.25;nan;61138.13;4977062;28;20181;-63
2023/06/04 03:11:12;;;;;;;5.95;3.75;;;;;;;17.19;nan;61131.97;4980688;28;20217;-63
2023/06/04 03:13:38;;;;;;;5.97;3.63;;;;;;;17.32;nan;61140.88;4980769;28;20181;-64
2023/06/04 03:16:09;;;;;;;7.30;3.88;;;;;;;17.51;nan;61182.38;4995393;28;20173;-64
2023/06/04 03:18:39;;;;;;;5.97;3.78;;;;;;;17.67;nan;61139.00;4985587;28;20181;-63
2023/06/04 03:21:05;;;;;;;4.90;3.33;;;;;;;17.82;nan;61188.94;4981730;28;20181;-63
2023/06/04 03:23:31;;;;;;;5.03;3.67;;;;;;;17.80;nan;61302.41;4980179;28;20185;-64
2023/06/04 03:25:56;;;;;;;5.57;3.72;;;;;;;18.06;nan;61355.03;4981698;28;20657;-65
2023/06/04 03:28:22;;;;;;;8.55;3.92;;;;;;;17.82;nan;61172.84;4981346;28;20183;-63
2023/06/04 03:30:47;;;;;;;4.95;3.70;;;;;;;18.32;nan;61246.75;4979969;28;20256;-63
2023/06/04 03:33:13;;;;;;;5.90;4.15;;;;;;;18.31;nan;61297.91;4981370;28;20195;-63
2023/06/04 03:35:40;;;;;;;5.03;3.47;;;;;;;18.21;nan;61302.16;4979534;28;20272;-63
2023/06/04 03:38:05;;;;;;;5.38;3.70;;;;;;;18.22;nan;61342.06;4988958;28;20588;-64
2023/06/04 03:40:31;;;;;;;4.20;3.25;;;;;;;18.29;nan;61383.59;4994711;28;20268;-64
2023/06/04 03:42:56;;;;;;;5.97;3.42;;;;;;;18.39;nan;61570.81;4982049;28;20181;-63
2023/06/04 03:45:22;;;;;;;5.80;3.80;;;;;;;18.43;nan;61401.44;4984966;28;20555;-64
2023/06/04 03:47:47;;;;;;;7.20;3.55;;;;;;;18.52;nan;61342.34;4980572;28;20181;-64
2023/06/04 03:50:13;;;;;;;5.90;3.92;;;;;;;18.57;nan;61346.88;4988380;28;20195;-65
2023/06/04 03:52:38;;;;;;;5.13;3.28;;;;;;;18.54;nan;61359.59;4983050;28;20185;-66
2023/06/04 03:55:04;;;;;;;5.70;3.60;;;;;;;18.85;nan;61350.59;4992582;28;20200;-65
2023/06/04 03:57:30;;;;;;;6.10;3.72;;;;;;;19.06;nan;61409.41;4990102;28;20181;-64
2023/06/04 03:59:56;;;;;;;5.57;3.60;;;;;;;18.82;nan;61386.03;4981623;28;20181;-64
2023/06/04 04:02:21;;;;;;;5.00;3.90;;;;;;;19.01;nan;61333.84;4990366;28;20229;-64
2023/06/04 04:04:46;;;;;;;11.40;3.92;;;;;;;18.77;nan;61333.81;4986065;28;20196;-64
2023/06/04 04:07:12;;;;;;;6.55;4.03;;;;;;;18.81;nan;61275.63;4988254;28;20192;-65
2023/06/04 04:09:38;;;;;;;7.28;4.20;;;;;;;18.70;nan;61226.97;4987791;28;20188;-64
2023/06/04 04:12:04;;;;;;;7.95;3.97;;;;;;;18.85;nan;61223.75;4986647;28;20201;-64
2023/06/04 04:14:29;;;;;;;6.18;4.10;;;;;;;18.69;nan;61236.75;4983806;28;20685;-64
2023/06/04 04:16:55;;;;;;;5.65;4.05;;;;;;;18.91;nan;61229.97;4981661;28;20229;-63
2023/06/04 04:19:20;;;;;;;5.88;3.67;;;;;;;18.79;nan;61237.69;4994405;28;20575;-64
2023/06/04 04:21:48;;;;;;;7.13;4.32;;;;;;;18.82;nan;61230.72;4981097;28;20325;-64
2023/06/04 04:24:24;;;;;;;6.28;4.05;;;;;;;19.15;nan;61365.78;4980868;28;20197;-64
2023/06/04 04:26:52;;;;;;;7.70;3.72;;;;;;;18.86;nan;61327.88;4984240;28;20185;-64
2023/06/04 04:29:19;;;;;;;6.82;4.32;;;;;;;19.13;nan;61638.06;4987315;28;20200;-64
2023/06/04 04:31:47;;;;;;;6.22;3.70;;;;;;;19.00;nan;61376.75;4986620;28;20214;-64
2023/06/04 04:34:14;;;;;;;7.03;4.32;;;;;;;19.01;nan;61438.00;4986945;28;20173;-63
2023/06/04 04:36:40;;;;;;;6.43;4.28;;;;;;;19.08;nan;61432.97;4984092;28;20185;-64
2023/06/04 04:39:06;;;;;;;5.10;3.70;;;;;;;19.18;nan;61379.53;4986090;28;20181;-64
2023/06/04 04:41:32;;;;;;;5.97;3.78;;;;;;;19.34;nan;61448.84;4979677;28;20560;-64
2023/06/04 04:44:05;;;;;;;5.65;3.97;;;;;;;19.13;nan;61503.38;4986986;28;20200;-67
2023/06/04 04:46:31;;;;;;;7.60;4.43;;;;;;;19.28;nan;61362.31;4982534;28;20201;-67
2023/06/04 04:48:57;;;;;;;5.65;3.97;;;;;;;19.44;nan;61438.88;5005263;28;20196;-65
2023/06/04 04:51:22;;;;;;;5.70;4.20;;;;;;;19.46;nan;61443.75;4988895;28;20207;-64
2023/06/04 04:53:48;;;;;;;5.30;3.95;;;;;;;19.07;nan;61374.88;4992013;28;20231;-64
2023/06/04 04:56:13;;;;;;;6.57;4.13;;;;;;;19.03;nan;61385.91;4986502;28;20199;-63
2023/06/04 04:58:39;;;;;;;7.13;4.22;;;;;;;19.31;nan;61632.56;4992234;28;20173;-63
2023/06/04 05:01:04;;;;;;;7.82;3.72;;;;;;;19.49;nan;61452.31;4992925;28;20278;-64
2023/06/04 05:03:30;;;;;;;6.20;4.32;;;;;;;19.55;nan;61428.00;4992907;28;20165;-65
2023/06/04 05:05:55;;;;;;;6.55;4.20;;;;;;;19.64;nan;61464.09;4992802;28;20181;-64
2023/06/04 05:08:21;;;;;;;5.03;4.07;;;;;;;19.52;nan;61417.41;4993098;28;20172;-65
2023/06/04 05:10:46;;;;;;;6.40;4.28;;;;;;;19.24;nan;61388.31;5007298;28;20200;-64
2023/06/04 05:13:13;;;;;;;6.72;4.30;;;;;;;19.32;nan;61661.63;4990495;28;20291;-63
2023/06/04 05:15:39;;;;;;;7.57;3.92;;;;;;;19.48;nan;61524.31;4988716;28;20181;-64
2023/06/04 05:18:05;;;;;;;4.93;3.72;;;;;;;19.56;nan;61582.03;4991484;28;20544;-64
2023/06/04 05:20:30;;;;;;;6.38;4.15;;;;;;;19.68;nan;61587.84;4992651;28;20204;-64
2023/06/04 05:22:56;;;;;;;6.60;4.57;;;;;;;19.57;nan;61590.94;4992424;28;20184;-65
2023/06/04 05:25:21;;;;;;;6.22;4.20;;;;;;;19.64;nan;61596.28;4992087;28;20629;-65
2023/06/04 05:27:49;;;;;;;6.32;3.92;;;;;;;20.08;nan;61871.81;4990341;28;20176;-64
2023/06/04 05:30:15;;;;;;;6.35;3.97;;;;;;;20.25;nan;61686.16;4992869;28;20180;-64
2023/06/04 05:32:40;;;;;;;8.50;3.78;;;;;;;20.05;nan;61694.63;4992856;28;20203;-64
2023/06/04 05:35:07;;;;;;;6.75;3.75;;;;;;;20.22;nan;61903.31;4992963;28;20219;-65
2023/06/04 05:37:34;;;;;;;8.73;4.00;;;;;;;20.35;nan;61711.97;4992811;28;20240;-64
2023/06/04 05:40:00;;;;;;;4.97;3.80;;;;;;;20.31;nan;61717.81;4992815;28;20263;-63
2023/06/04 05:42:25;;;;;;;5.57;3.75;;;;;;;20.13;nan;61734.81;4992649;28;20268;-64
2023/06/04 05:44:51;;;;;;;6.07;4.03;;;;;;;20.55;nan;61740.41;4992705;28;20644;-66
2023/06/04 05:47:18;;;;;;;8.00;4.22;;;;;;;20.54;nan;61708.13;4993097;28;20184;-65
2023/06/04 05:49:44;;;;;;;6.05;4.38;;;;;;;20.64;nan;61770.84;4992491;28;20176;-66
2023/06/04 05:52:09;;;;;;;8.60;4.13;;;;;;;20.92;nan;61797.44;4992538;28;20207;-66
2023/06/04 05:54:36;;;;;;;6.80;4.38;;;;;;;20.99;nan;61776.78;4992311;28;20180;-66
2023/06/04 05:57:02;;;;;;;6.88;4.82;;;;;;;21.00;nan;61805.94;4985868;28;20216;-62
2023/06/04 05:59:27;;;;;;;6.88;4.18;;;;;;;20.76;nan;61822.84;4990458;28;20664;-63
2023/06/04 06:01:53;;;;;;;6.75;4.70;;;;;;;21.22;nan;61836.16;4991727;28;20224;-63
2023/06/04 06:04:18;;;;;;;8.50;4.32;;;;;;;21.17;nan;61851.28;4991866;28;20175;-64
2023/06/04 06:06:47;;;;;;;5.90;4.20;;;;;;;21.39;nan;61886.09;4991873;28;20493;-63
2023/06/04 06:09:12;;;;;;;8.85;4.43;;;;;;;21.34;nan;61880.97;4991885;28;20172;-63
2023/06/04 06:11:38;;;;;;;5.72;4.07;;;;;;;21.42;nan;61877.06;4991722;28;20602;-63
2023/06/04 06:14:03;;;;;;;6.03;4.32;;;;;;;21.41;nan;61883.72;4991835;28;20165;-63
2023/06/04 06:16:28;;;;;;;6.28;4.30;;;;;;;21.79;nan;61931.00;4990652;28;20183;-63
2023/06/04 06:18:54;;;;;;;6.10;4.35;;;;;;;21.86;nan;61980.59;4990749;28;20580;-64
2023/06/04 06:21:20;;;;;;;10.00;4.60;;;;;;;21.93;nan;61959.94;4986698;28;20189;-63
2023/06/04 06:23:45;;;;;;;6.07;4.25;;;;;;;22.19;nan;61996.78;4985666;28;20215;-63
2023/06/04 06:26:11;;;;;;;7.57;4.25;;;;;;;22.28;nan;61965.94;4991080;28;20189;-64
2023/06/04 06:28:36;;;;;;;5.90;3.83;;;;;;;22.27;nan;62006.47;4991978;28;20243;-63
2023/06/04 06:31:02;;;;;;;7.00;4.93;;;;;;;22.41;nan;61954.13;4991889;28;20601;-63
2023/06/04 06:33:28;;;;;;;7.43;4.88;;;;;;;22.40;nan;62036.31;4991585;28;20231;-63
2023/06/04 06:35:54;;;;;;;6.93;4.95;;;;;;;22.42;nan;62018.31;4994332;28;20201;-63
2023/06/04 06:38:19;;;;;;;7.20;4.63;;;;;;;22.65;nan;62075.19;4991845;28;20180;-63
2023/06/04 06:40:45;;;;;;;6.38;4.43;;;;;;;22.86;nan;62026.16;4991431;28;20200;-63
2023/06/04 06:43:11;;;;;;;7.25;4.15;;;;;;;22.94;nan;62071.19;4991813;28;20192;-63
2023/06/04 06:45:37;;;;;;;6.47;4.10;;;;;;;22.83;nan;62054.03;4992859;28;20219;-64
2023/06/04 06:48:03;;;;;;;6.18;4.38;;;;;;;22.90;nan;62072.41;4995641;28;20223;-63
2023/06/04 06:50:29;;;;;;;7.35;4.50;;;;;;;22.35;nan;61973.31;4995408;28;20184;-64
2023/06/04 06:52:54;;;;;;;6.63;4.75;;;;;;;22.34;nan;61995.63;4995386;28;20235;-63
2023/06/04 06:55:20;;;;;;;8.40;4.97;;;;;;;22.28;nan;61999.22;4995055;28;20260;-62
2023/06/04 06:57:46;;;;;;;6.15;4.43;;;;;;;22.17;nan;62013.28;4995272;28;20625;-63
2023/06/04 07:00:12;;;;;;;9.75;4.60;;;;;;;22.27;nan;61998.06;4995243;28;20225;-64
2023/06/04 07:02:37;;;;;;;7.55;4.80;;;;;;;21.77;nan;61937.09;4995268;28;20176;-63
2023/06/04 07:05:03;;;;;;;7.57;4.95;;;;;;;21.92;nan;61959.34;4995139;28;20173;-63
2023/06/04 07:07:28;;;;;;;7.82;4.90;;;;;;;22.26;nan;61978.72;4995082;28;20243;-63
2023/06/04 07:09:53;;;;;;;7.25;4.80;;;;;;;22.42;nan;62012.53;4995144;28;20540;-64
2023/06/04 07:12:19;;;;;;;7.90;5.35;;;;;;;21.91;nan;61945.22;4995051;28;20262;-63
2023/06/04 07:14:45;;;;;;;8.18;4.80;;;;;;;21.96;nan;61997.19;4994969;28;20207;-64
2023/06/04 07:17:10;;;;;;;8.15;5.55;;;;;;;21.82;nan;61948.00;4994611;28;20185;-63
2023/06/04 07:19:36;;;;;;;7.25;4.47;;;;;;;21.60;nan;61894.34;4992979;28;20177;-63
2023/06/04 07:22:01;;;;;;;9.18;5.05;;;;;;;21.98;nan;61940.19;4988636;28;20618;-63
2023/06/04 07:24:26;;;;;;;7.55;5.40;;;;;;;22.03;nan;61955.72;4994538;28;20185;-65
2023/06/04 07:26:52;;;;;;;7.75;5.22;;;;;;;21.82;nan;61911.00;5026392;28;20180;-63
2023/06/04 07:29:17;;;;;;;7.45;5.20;;;;;;;21.71;nan;61943.28;4994291;28;20280;-64
2023/06/04 07:31:43;;;;;;;7.68;4.93;;;;;;;22.18;nan;61983.19;4994341;28;20236;-64
2023/06/04 07:34:08;;;;;;;6.90;4.78;;;;;;;21.74;nan;61954.50;4994703;28;20172;-64
2023/06/04 07:36:33;;;;;;;7.72;4.45;;;;;;;21.84;nan;61954.91;5009686;28;20195;-64
2023/06/04 07:38:59;;;;;;;5.93;4.22;;;;;;;21.50;nan;61909.00;4994604;28;20169;-63
2023/06/04 07:41:26;;;;;;;8.13;4.78;;;;;;;21.36;nan;61809.91;4994883;28;20180;-62
2023/06/04 07:43:51;;;;;;;8.57;4.68;;;;;;;21.63;nan;61921.19;4987566;28;20196;-65
2023/06/04 07:46:18;;;;;;;6.20;4.50;;;;;;;21.74;nan;61946.13;4988376;28;20185;-63
2023/06/04 07:48:44;;;;;;;6.63;4.45;;;;;;;21.58;nan;61931.09;4994205;28;20636;-63
2023/06/04 07:51:11;;;;;;;7.57;4.95;;;;;;;21.65;nan;61931.25;4994153;28;20674;-63
2023/06/04 07:53:37;;;;;;;8.52;4.95;;;;;;;21.58;nan;61900.47;4994170;28;20219;-63
2023/06/04 07:56:03;;;;;;;5.70;4.05;;;;;;;21.64;nan;61913.97;4993672;28;20192;-64
2023/06/04 07:58:29;;;;;;;7.82;4.68;;;;;;;21.90;nan;61948.72;4994464;28;20548;-63
2023/06/04 08:00:55;;;;;;;9.57;4.93;;;;;;;21.98;nan;61983.84;4993857;28;20223;-64
2023/06/04 08:03:20;;;;;;;10.63;4.95;;;;;;;22.36;nan;62001.06;4990786;28;20186;-63
2023/06/04 08:05:46;;;;;;;7.40;4.70;;;;;;;21.91;nan;61955.06;4989750;28;20224;-64
2023/06/04 08:08:11;;;;;;;8.05;4.80;;;;;;;21.54;nan;61875.13;4994503;28;20188;-64
2023/06/04 08:10:38;;;;;;;7.88;4.68;;;;;;;21.48;nan;61896.91;4994079;28;20232;-64
2023/06/04 08:13:04;;;;;;;7.68;4.90;;;;;;;21.66;nan;61921.41;4993456;28;20572;-62
2023/06/04 08:15:29;;;;;;;8.05;4.95;;;;;;;21.62;nan;61888.25;4993704;28;20581;-62
2023/06/04 08:17:54;;;;;;;9.98;4.85;;;;;;;21.22;nan;61833.56;4993664;28;20192;-63
2023/06/04 08:20:20;;;;;;;7.32;5.18;;;;;;;21.22;nan;61841.38;4993396;28;20251;-63
2023/06/04 08:22:45;;;;;;;8.00;5.30;;;;;;;21.48;nan;61896.31;4993671;28;20183;-62
2023/06/04 08:25:11;;;;;;;10.02;5.05;;;;;;;21.29;nan;61864.91;4987150;28;20637;-62
2023/06/04 08:27:37;;;;;;;7.80;4.43;;;;;;;21.50;nan;61877.81;4993356;28;20184;-64
2023/06/04 08:30:03;;;;;;;6.18;4.07;;;;;;;21.52;nan;61856.66;4991802;28;20679;-63
2023/06/04 08:32:28;;;;;;;6.97;4.68;;;;;;;21.78;nan;61959.03;4988580;28;20231;-64
2023/06/04 08:34:54;;;;;;;7.53;4.25;;;;;;;21.85;nan;61928.00;4986447;28;20226;-63
2023/06/04 08:37:20;;;;;;;6.90;4.35;;;;;;;21.83;nan;61912.69;4982097;28;20552;-63
2023/06/04 08:39:45;;;;;;;6.38;4.28;;;;;;;21.69;nan;61888.97;4982554;28;20663;-63
2023/06/04 08:42:21;;;;;;;7.43;4.93;;;;;;;21.76;nan;62101.88;4984975;28;20591;-63
2023/06/04 08:44:52;;;;;;;7.28;4.35;;;;;;;21.67;nan;61917.94;4988111;28;20263;-63
2023/06/04 08:47:19;;;;;;;6.13;4.15;;;;;;;21.82;nan;61939.63;4992794;28;20177;-64
2023/06/04 08:49:49;;;;;;;6.22;4.00;;;;;;;22.24;nan;61992.63;4993016;28;20173;-64
2023/06/04 08:52:15;;;;;;;6.05;3.70;;;;;;;22.06;nan;62005.97;4993019;28;20583;-64
2023/06/04 08:54:41;;;;;;;6.25;3.53;;;;;;;21.96;nan;61965.97;4992637;28;20172;-63
2023/06/04 08:57:07;;;;;;;6.38;3.58;;;;;;;22.11;nan;61980.44;4993070;28;20271;-63
2023/06/04 08:59:32;;;;;;;5.78;3.55;;;;;;;21.69;nan;61935.81;4992915;28;20252;-65
2023/06/04 09:01:58;;;;;;;5.05;3.45;;;;;;;21.92;nan;62065.47;4992612;28;20225;-64
2023/06/04 09:04:26;;;;;;;4.75;3.13;;;;;;;22.09;nan;62006.22;4992727;28;20244;-63
2023/06/04 09:06:53;;;;;;;5.00;3.72;;;;;;;22.04;nan;62047.94;4993140;28;20276;-64
2023/06/04 09:09:20;;;;;;;5.97;3.90;;;;;;;22.40;nan;62028.50;4992257;28;20187;-64
2023/06/04 09:11:52;;;;;;;5.50;4.28;;;;;;;22.59;nan;62047.53;4992779;28;20205;-64
2023/06/04 09:14:18;;;;;;;9.00;4.50;;;;;;;22.53;nan;62069.31;4992557;28;20186;-64
2023/06/04 09:16:45;;;;;;;5.85;4.10;;;;;;;21.75;nan;61923.84;4992773;28;20260;-63
2023/06/04 09:19:11;;;;;;;8.23;4.78;;;;;;;22.42;nan;62012.53;4992702;28;20173;-62
2023/06/04 09:22:02;;;;;;;6.68;4.40;;;;;;;22.34;nan;62024.25;4992252;28;20176;-63
2023/06/04 09:24:55;;;;;;;7.38;4.32;;;;;;;22.75;nan;62078.22;4992598;28;20157;-62
2023/06/04 09:27:25;;;;;;;6.50;4.28;;;;;;;22.61;nan;61911.72;4991005;28;20188;-64
2023/06/04 09:29:52;;;;;;;5.82;4.30;;;;;;;22.38;nan;62037.19;4992514;28;20602;-65
2023/06/04 09:32:22;;;;;;;6.88;4.50;;;;;;;22.36;nan;62021.34;4985480;28;21316;-64
2023/06/04 09:34:48;;;;;;;6.57;4.53;;;;;;;22.03;nan;61969.31;4986233;28;20181;-64
2023/06/04 09:37:19;;;;;;;6.35;4.15;;;;;;;22.11;nan;61940.81;4992166;28;20177;-64
2023/06/04 09:39:54;;;;;;;4.97;4.07;;;;;;;22.88;nan;62119.66;4992655;28;20183;-65
2023/06/04 09:42:21;;;;;;;5.97;4.55;;;;;;;23.05;nan;62119.63;4992543;28;20184;-63
2023/06/04 09:44:47;;;;;;;7.07;3.92;;;;;;;22.95;nan;62097.81;4992202;28;20188;-64
2023/06/04 09:47:12;;;;;;;7.10;4.40;;;;;;;22.37;nan;62199.53;4992110;28;20654;-64
2023/06/04 09:49:46;;;;;;;6.38;4.28;;;;;;;22.88;nan;62059.72;4992743;28;20169;-65
2023/06/04 09:52:14;;;;;;;5.68;4.20;;;;;;;22.87;nan;62297.75;4991848;28;20257;-64
2023/06/04 09:54:41;;;;;;;6.57;4.15;;;;;;;23.06;nan;62118.75;4992232;28;20201;-64
2023/06/04 09:57:18;;;;;;;6.45;4.45;;;;;;;23.16;nan;62096.25;4992013;28;20648;-64
2023/06/04 09:59:45;;;;;;;6.15;4.40;;;;;;;23.38;nan;62146.25;4990645;28;20275;-63
2023/06/04 10:02:18;;;;;;;6.22;4.15;;;;;;;23.12;nan;62122.41;4992404;28;20169;-64
2023/06/04 10:04:48;;;;;;;6.30;4.30;;;;;;;23.08;nan;62083.94;4991309;28;20204;-63
2023/06/04 10:07:15;;;;;;;5.30;3.78;;;;;;;23.03;nan;62125.19;4991965;28;20173;-65
2023/06/04 10:09:45;;;;;;;4.68;4.18;;;;;;;23.41;nan;62168.50;4991804;28;20188;-63
2023/06/04 10:12:17;;;;;;;5.35;3.97;;;;;;;23.70;nan;62167.66;4985593;28;20204;-64
2023/06/04 10:14:54;;;;;;;5.18;3.17;;;;;;;23.88;nan;62194.88;4992135;28;20656;-65
2023/06/04 10:17:23;;;;;;;5.63;3.92;;;;;;;23.53;nan;62194.69;4992084;28;20169;-65
2023/06/04 10:19:54;;;;;;;9.60;3.97;;;;;;;23.36;nan;62170.63;4993657;28;20223;-63
2023/06/04 10:22:22;;;;;;;5.57;4.07;;;;;;;23.72;nan;62224.72;4995600;28;20198;-64
2023/06/04 10:24:49;;;;;;;5.93;3.70;;;;;;;23.60;nan;62169.31;4989571;28;20197;-63
2023/06/04 10:27:17;;;;;;;7.30;4.28;;;;;;;24.14;nan;62250.63;4980786;28;20185;-64
2023/06/04 10:29:43;;;;;;;4.65;3.60;;;;;;;23.67;nan;62148.59;4995736;28;20207;-64
2023/06/04 10:32:08;;;;;;;5.80;4.05;;;;;;;23.47;nan;62180.56;4995212;28;20204;-64
2023/06/04 10:34:35;;;;;;;5.22;4.10;;;;;;;23.27;nan;62137.47;4988260;28;20184;-63
2023/06/04 10:37:00;;;;;;;5.55;3.50;;;;;;;23.10;nan;62136.34;4995668;28;20183;-65
2023/06/04 10:39:32;;;;;;;7.35;3.85;;;;;;;23.13;nan;62131.34;4995269;28;20193;-63
2023/06/04 10:42:06;;;;;;;6.90;3.45;;;;;;;23.59;nan;62212.50;4989249;28;20196;-65
2023/06/04 10:44:43;;;;;;;4.60;3.03;;;;;;;23.52;nan;62162.22;4978638;28;20173;-63
2023/06/04 10:47:18;;;;;;;4.13;3.00;;;;;;;23.81;nan;62226.63;4994978;28;20182;-64
2023/06/04 10:49:43;;;;;;;4.07;2.67;;;;;;;23.52;nan;62194.09;4995710;28;20184;-64
2023/06/04 10:52:12;;;;;;;5.85;3.60;;;;;;;24.05;nan;62263.84;4995406;28;20200;-63
2023/06/04 10:54:37;;;;;;;4.72;3.20;;;;;;;23.76;nan;62236.56;4995131;28;20517;-64
2023/06/04 10:57:13;;;;;;;5.53;3.60;;;;;;;24.25;nan;62257.97;4993803;28;20663;-66
2023/06/04 10:59:39;;;;;;;5.82;3.70;;;;;;;23.96;nan;62233.28;4995338;28;20172;-64
2023/06/04 11:02:06;;;;;;;3.95;3.25;;;;;;;23.96;nan;62191.50;4969447;28;20260;-64
2023/06/04 11:04:32;;;;;;;5.53;3.58;;;;;;;24.07;nan;62253.66;4975776;28;20236;-64
2023/06/04 11:07:10;;;;;;;5.22;3.60;;;;;;;23.90;nan;62215.44;4969981;28;20194;-66
2023/06/04 11:09:37;;;;;;;7.03;4.97;;;;;;;23.48;nan;62166.06;4967577;28;20217;-64
2023/06/04 11:12:05;;;;;;;9.43;5.50;;;;;;;23.23;nan;62142.75;4975059;28;20628;-65
2023/06/04 11:14:30;;;;;;;8.57;5.82;;;;;;;23.66;nan;62181.38;4975544;28;20177;-64
2023/06/04 11:16:56;;;;;;;6.72;5.05;;;;;;;24.04;nan;62237.19;4975538;28;20204;-64
2023/06/04 11:19:22;;;;;;;8.27;5.20;;;;;;;24.46;nan;62315.91;4975328;28;20166;-64
2023/06/04 11:21:48;;;;;;;8.48;5.03;;;;;;;24.41;nan;62254.78;4974527;28;20182;-65
2023/06/04 11:24:13;;;;;;;10.85;5.47;;;;;;;24.39;nan;62281.78;4969114;28;20189;-64
2023/06/04 11:26:39;;;;;;;7.95;5.57;;;;;;;24.38;nan;62280.06;4975257;28;20562;-67
2023/06/04 11:29:11;;;;;;;9.60;5.15;;;;;;;24.01;nan;62389.84;4975574;28;20169;-66
2023/06/04 11:31:47;;;;;;;8.23;5.18;;;;;;;24.00;nan;62250.88;4968549;28;20205;-66
2023/06/04 11:34:22;;;;;;;9.02;5.00;;;;;;;23.96;nan;62230.09;4975336;28;20664;-66
2023/06/04 11:36:49;;;;;;;6.55;4.40;;;;;;;24.05;nan;62256.03;4956351;28;20169;-66
2023/06/04 11:39:15;;;;;;;6.32;4.20;;;;;;;24.26;nan;62483.19;4967271;28;20268;-64
2023/06/04 11:41:42;;;;;;;8.93;5.00;;;;;;;23.96;nan;62248.38;4975513;28;20281;-64
2023/06/04 11:44:07;;;;;;;11.65;4.68;;;;;;;23.62;nan;62153.34;4973995;28;20197;-64
2023/06/04 11:46:33;;;;;;;6.40;4.40;;;;;;;23.58;nan;62166.47;4974997;28;20185;-64
2023/06/04 11:48:59;;;;;;;6.65;4.60;;;;;;;23.57;nan;62209.69;4974443;28;20237;-64
2023/06/04 11:51:25;;;;;;;7.30;4.93;;;;;;;23.67;nan;62195.00;4974475;28;20688;-63